Time;durP1;ratioP1;P1;durP2;ratioP2;P2;SDS_P1;SDS_P2;PMS_P1;PMS_P2;Temp;Humidity;BMP_temperature;BMP_pressure;BME280_temperature;BME280_humidity;BME280_pressure;Samples;Min_cycle;Max_cycle;Signal;HPM_P1;HPM_P2
2022/05/03 00:02:30;;;;;;;4.85;2.72;;;11.10;52.00;;;;;;4989762;28;20097;-85
2022/05/03 00:05:22;;;;;;;3.63;2.42;;;11.00;52.00;;;;;;4980362;28;20616;-85
2022/05/03 00:08:09;;;;;;;3.83;2.33;;;11.00;52.00;;;;;;4972511;28;20051;-85
2022/05/03 00:11:05;;;;;;;3.83;2.30;;;10.90;52.00;;;;;;4975248;28;20090;-86
2022/05/03 00:13:45;;;;;;;3.78;2.80;;;10.90;52.10;;;;;;5073541;28;20491;-86
2022/05/03 00:16:13;;;;;;;3.13;2.33;;;10.80;52.10;;;;;;5055505;28;20053;-86
2022/05/03 00:18:41;;;;;;;3.15;2.40;;;10.80;52.20;;;;;;5061307;28;20116;-85
2022/05/03 00:21:07;;;;;;;3.35;2.30;;;10.80;52.30;;;;;;5057182;28;20048;-86
2022/05/03 00:23:33;;;;;;;5.78;3.67;;;10.80;52.30;;;;;;5070495;28;20387;-86
2022/05/03 00:25:59;;;;;;;4.95;2.80;;;10.70;52.30;;;;;;5040068;28;20492;-85
2022/05/03 00:28:26;;;;;;;4.38;2.90;;;10.70;52.40;;;;;;5072657;28;20044;-85
2022/05/03 00:30:54;;;;;;;4.20;2.53;;;10.70;52.60;;;;;;5074301;28;20045;-85
2022/05/03 00:33:22;;;;;;;4.18;2.53;;;10.60;52.60;;;;;;5047602;28;20511;-86
2022/05/03 00:35:49;;;;;;;4.00;2.95;;;10.60;52.60;;;;;;5039089;28;20049;-85
2022/05/03 00:38:15;;;;;;;4.25;3.20;;;10.60;52.60;;;;;;5069857;28;20044;-86
2022/05/03 00:40:48;;;;;;;4.25;2.97;;;10.60;52.60;;;;;;5074259;28;20364;-85
2022/05/03 00:43:35;;;;;;;4.15;3.13;;;10.50;52.70;;;;;;5054693;28;20044;-85
2022/05/03 00:46:19;;;;;;;4.85;2.80;;;10.50;52.70;;;;;;5073804;28;20082;-86
2022/05/03 00:49:07;;;;;;;3.72;2.60;;;10.40;52.70;;;;;;5067912;28;20051;-86
2022/05/03 00:52:03;;;;;;;4.75;2.75;;;10.40;52.70;;;;;;5073268;28;20048;-83
2022/05/03 00:54:50;;;;;;;4.28;3.10;;;10.40;52.90;;;;;;5056548;28;20092;-85
2022/05/03 00:57:50;;;;;;;3.83;2.70;;;10.40;52.90;;;;;;5043066;28;20053;-86
2022/05/03 01:00:16;;;;;;;3.88;2.95;;;10.40;52.90;;;;;;5075509;28;20048;-86
2022/05/03 01:03:15;;;;;;;4.10;2.85;;;10.30;52.80;;;;;;5048502;28;20041;-85
2022/05/03 01:06:01;;;;;;;4.35;2.65;;;10.30;52.90;;;;;;5040361;28;20058;-86
2022/05/03 01:08:33;;;;;;;3.88;2.88;;;10.30;52.90;;;;;;5063513;28;20041;-86
2022/05/03 01:11:21;;;;;;;4.18;2.88;;;10.20;52.90;;;;;;5056684;28;20061;-85
2022/05/03 01:13:59;;;;;;;3.45;2.42;;;10.20;52.90;;;;;;5040525;28;20123;-86
2022/05/03 01:16:30;;;;;;;4.65;2.95;;;10.20;52.80;;;;;;5039067;28;20040;-86
2022/05/03 01:19:23;;;;;;;4.28;2.65;;;10.10;52.80;;;;;;5072794;28;20040;-86
2022/05/03 01:22:27;;;;;;;4.95;3.17;;;10.10;52.90;;;;;;5057163;28;20056;-86
2022/05/03 01:25:20;;;;;;;4.53;2.55;;;10.10;52.90;;;;;;5039301;28;20049;-85
2022/05/03 01:28:22;;;;;;;4.18;2.78;;;10.10;53.00;;;;;;5055735;28;20077;-85
2022/05/03 01:30:50;;;;;;;4.05;2.60;;;10.00;52.80;;;;;;5037627;28;20127;-85
2022/05/03 01:33:43;;;;;;;3.92;3.00;;;10.00;52.90;;;;;;5055988;28;20128;-85
2022/05/03 01:36:09;;;;;;;3.88;2.80;;;10.00;53.00;;;;;;5056518;28;20051;-85
2022/05/03 01:39:06;;;;;;;3.55;2.47;;;9.90;53.00;;;;;;5061633;28;20158;-85
2022/05/03 01:41:46;;;;;;;4.03;2.92;;;10.00;53.20;;;;;;5055746;28;20052;-84
2022/05/03 01:44:36;;;;;;;3.78;2.80;;;9.90;53.20;;;;;;5052834;28;20377;-85
2022/05/03 01:47:20;;;;;;;4.40;3.50;;;9.90;53.60;;;;;;5070065;28;20059;-85
2022/05/03 01:52:55;;;;;;;4.75;2.38;;;9.80;52.90;;;;;;5070454;28;19920;-85
2022/05/03 01:55:59;;;;;;;4.63;3.20;;;9.70;53.10;;;;;;5055350;28;20090;-85
2022/05/03 01:58:49;;;;;;;3.92;2.60;;;9.70;53.30;;;;;;5042051;28;20062;-85
2022/05/03 02:01:40;;;;;;;4.90;2.85;;;9.70;53.40;;;;;;5036406;28;20049;-85
2022/05/03 02:04:38;;;;;;;4.90;2.72;;;9.60;53.40;;;;;;5044104;28;20627;-85
2022/05/03 02:07:11;;;;;;;3.95;2.90;;;9.60;53.40;;;;;;5044405;28;20054;-85
2022/05/03 02:09:59;;;;;;;3.80;2.70;;;9.60;53.40;;;;;;5036665;28;20049;-85
2022/05/03 02:12:25;;;;;;;4.95;3.38;;;9.60;53.50;;;;;;5054078;28;20052;-85
2022/05/03 02:15:00;;;;;;;4.15;2.58;;;9.60;53.50;;;;;;5056119;28;20044;-85
2022/05/03 02:17:28;;;;;;;2.97;2.47;;;9.60;53.50;;;;;;5054914;28;20055;-85
2022/05/03 02:20:15;;;;;;;4.50;2.80;;;9.50;53.60;;;;;;5041050;28;20361;-85
2022/05/03 02:22:59;;;;;;;3.97;2.65;;;9.50;53.70;;;;;;5053969;28;20438;-85
2022/05/03 02:25:40;;;;;;;3.77;2.50;;;9.50;53.70;;;;;;5038202;28;20132;-85
2022/05/03 02:28:26;;;;;;;3.75;2.83;;;9.50;53.70;;;;;;5037954;28;20049;-85
2022/05/03 02:30:54;;;;;;;5.63;2.90;;;9.50;53.70;;;;;;5065572;28;20052;-85
2022/05/03 02:33:23;;;;;;;3.60;3.08;;;9.40;53.60;;;;;;5053549;28;20476;-85
2022/05/03 02:35:54;;;;;;;5.50;3.70;;;9.40;53.70;;;;;;5038318;28;20045;-85
2022/05/03 02:38:55;;;;;;;3.85;2.72;;;9.40;53.70;;;;;;5054716;28;20044;-86
2022/05/03 02:41:22;;;;;;;3.83;2.85;;;9.30;53.70;;;;;;5066939;28;20045;-85
2022/05/03 02:43:50;;;;;;;4.57;3.03;;;9.40;53.80;;;;;;5047326;28;20101;-85
2022/05/03 02:46:38;;;;;;;4.93;3.17;;;9.30;53.80;;;;;;5060010;28;20071;-86
2022/05/03 02:49:07;;;;;;;4.75;3.00;;;9.30;53.90;;;;;;5036700;28;20040;-85
2022/05/03 02:51:46;;;;;;;4.63;3.25;;;9.30;53.90;;;;;;5064619;28;20048;-85
2022/05/03 02:54:30;;;;;;;3.67;2.75;;;9.20;53.90;;;;;;5054956;28;20467;-85
2022/05/03 02:57:32;;;;;;;4.25;3.35;;;9.30;53.90;;;;;;5038844;28;20102;-86
2022/05/03 03:03:27;;;;;;;3.95;2.70;;;9.20;53.90;;;;;;5071845;28;20072;-85
2022/05/03 03:05:58;;;;;;;5.38;2.90;;;9.20;53.80;;;;;;5072294;28;20492;-84
2022/05/03 03:08:24;;;;;;;3.70;2.67;;;9.20;53.80;;;;;;5064187;28;20032;-86
2022/05/03 03:11:03;;;;;;;3.72;2.70;;;9.10;53.80;;;;;;5042350;28;20434;-85
2022/05/03 03:13:41;;;;;;;3.67;2.70;;;9.10;53.90;;;;;;5038797;28;20045;-85
2022/05/03 03:16:13;;;;;;;4.50;2.47;;;9.10;53.90;;;;;;5048228;28;20095;-85
2022/05/03 03:18:42;;;;;;;3.75;2.75;;;9.10;53.90;;;;;;5038558;28;20037;-85
2022/05/03 03:21:11;;;;;;;3.30;2.55;;;9.10;54.30;;;;;;5050981;28;20168;-85
2022/05/03 03:23:39;;;;;;;4.38;2.80;;;9.00;53.90;;;;;;5055233;28;20041;-85
2022/05/03 03:26:06;;;;;;;4.93;2.70;;;9.00;53.90;;;;;;5045468;28;20033;-84
2022/05/03 03:28:35;;;;;;;4.40;2.63;;;9.00;53.90;;;;;;5046550;28;20045;-85
2022/05/03 03:31:02;;;;;;;4.03;2.78;;;9.00;53.90;;;;;;5050684;28;20571;-85
2022/05/03 03:33:34;;;;;;;3.38;2.47;;;9.00;54.00;;;;;;5054980;28;20110;-85
2022/05/03 03:36:02;;;;;;;4.10;2.88;;;8.90;54.00;;;;;;5050825;28;20058;-85
2022/05/03 03:38:37;;;;;;;5.20;3.00;;;8.90;54.10;;;;;;5056733;28;20041;-85
2022/05/03 03:41:03;;;;;;;3.75;2.35;;;8.90;54.10;;;;;;5041267;28;20103;-85
2022/05/03 03:43:30;;;;;;;4.53;2.78;;;8.90;54.10;;;;;;5055051;28;20156;-85
2022/05/03 03:45:56;;;;;;;3.08;2.33;;;8.90;54.20;;;;;;5042021;28;20128;-85
2022/05/03 03:48:21;;;;;;;5.10;3.33;;;8.80;54.20;;;;;;5066809;28;20098;-85
2022/05/03 03:50:47;;;;;;;3.63;2.92;;;8.80;54.20;;;;;;5051188;28;20079;-85
2022/05/03 03:53:15;;;;;;;3.60;2.42;;;8.80;54.20;;;;;;5039721;28;20095;-85
2022/05/03 03:55:42;;;;;;;4.07;2.55;;;8.80;54.30;;;;;;5038339;28;20076;-85
2022/05/03 03:58:08;;;;;;;4.85;2.50;;;8.70;54.30;;;;;;5054767;28;20101;-85
2022/05/03 04:00:34;;;;;;;3.58;2.65;;;8.80;54.40;;;;;;5048968;28;20419;-85
2022/05/03 04:03:01;;;;;;;3.22;2.35;;;8.70;54.40;;;;;;5052924;28;20091;-85
2022/05/03 04:05:28;;;;;;;3.20;2.20;;;8.70;54.60;;;;;;5054208;28;20103;-85
2022/05/03 04:07:54;;;;;;;3.65;2.17;;;8.70;54.70;;;;;;5052836;28;20049;-85
2022/05/03 04:10:20;;;;;;;2.60;1.95;;;8.70;54.80;;;;;;5052291;28;20054;-85
2022/05/03 04:12:46;;;;;;;3.47;2.70;;;8.70;54.90;;;;;;5043150;28;20068;-85
2022/05/03 04:15:11;;;;;;;3.05;1.77;;;8.60;54.80;;;;;;5045082;28;20065;-86
2022/05/03 04:17:37;;;;;;;2.70;2.03;;;8.60;54.90;;;;;;5045815;28;20043;-86
2022/05/03 04:20:03;;;;;;;3.60;2.13;;;8.60;55.00;;;;;;5036994;28;20077;-85
2022/05/03 04:22:31;;;;;;;3.03;2.00;;;8.60;55.10;;;;;;5036347;28;20049;-86
2022/05/03 04:24:58;;;;;;;2.60;1.90;;;8.60;55.20;;;;;;5037578;28;20072;-85
2022/05/03 04:27:26;;;;;;;2.67;1.92;;;8.60;55.40;;;;;;5043346;28;20410;-85
2022/05/03 04:29:53;;;;;;;3.15;1.80;;;8.60;55.50;;;;;;5056733;28;20087;-85
2022/05/03 04:32:19;;;;;;;2.42;1.88;;;8.60;55.50;;;;;;5066725;28;20067;-84
2022/05/03 04:34:45;;;;;;;2.97;2.05;;;8.60;55.70;;;;;;5079868;28;20017;-85
2022/05/03 04:37:11;;;;;;;3.33;2.35;;;8.60;55.80;;;;;;5062011;28;20033;-85
2022/05/03 04:39:37;;;;;;;4.47;3.22;;;8.50;55.90;;;;;;5035947;28;20419;-85
2022/05/03 04:42:03;;;;;;;3.17;2.50;;;8.60;56.20;;;;;;5039298;28;20053;-84
2022/05/03 04:44:29;;;;;;;4.40;2.60;;;8.60;56.40;;;;;;5050510;28;20061;-85
2022/05/03 04:46:54;;;;;;;3.58;2.58;;;8.60;56.50;;;;;;5037428;28;20042;-85
2022/05/03 04:49:20;;;;;;;3.42;2.60;;;8.60;56.80;;;;;;5042586;28;20041;-85
2022/05/03 04:51:46;;;;;;;4.85;3.60;;;8.60;56.90;;;;;;5052493;28;20084;-84
2022/05/03 04:54:11;;;;;;;3.85;2.70;;;8.60;57.00;;;;;;5054015;28;20083;-85
2022/05/03 04:56:37;;;;;;;5.00;3.75;;;8.60;57.10;;;;;;5047646;28;20124;-85
2022/05/03 04:59:03;;;;;;;3.78;2.92;;;8.70;57.40;;;;;;5051105;28;20143;-84
2022/05/03 05:01:29;;;;;;;4.88;3.03;;;8.70;57.40;;;;;;5051631;28;20053;-84
2022/05/03 05:03:55;;;;;;;5.75;4.00;;;8.80;57.30;;;;;;5039044;28;20045;-84
2022/05/03 05:06:21;;;;;;;4.50;3.83;;;8.70;57.30;;;;;;5034096;28;20092;-84
2022/05/03 05:08:47;;;;;;;4.25;3.58;;;8.70;57.40;;;;;;5049776;28;20396;-84
2022/05/03 05:11:13;;;;;;;6.90;4.65;;;8.80;57.70;;;;;;5064276;28;20091;-85
2022/05/03 05:13:39;;;;;;;5.80;3.78;;;8.80;57.90;;;;;;5065850;28;20045;-85
2022/05/03 05:16:08;;;;;;;5.68;4.38;;;8.80;58.00;;;;;;5072946;28;20399;-85
2022/05/03 05:18:34;;;;;;;5.55;4.22;;;8.90;58.20;;;;;;5073230;28;20479;-88
2022/05/03 05:20:59;;;;;;;6.00;4.00;;;8.90;58.40;;;;;;5053722;28;20037;-85
2022/05/03 05:23:25;;;;;;;7.00;5.30;;;8.90;58.40;;;;;;5070432;28;20048;-86
2022/05/03 05:25:52;;;;;;;5.30;3.63;;;9.00;58.50;;;;;;5073934;28;20487;-86
2022/05/03 05:28:19;;;;;;;5.80;4.47;;;9.10;58.50;;;;;;5066294;28;20387;-86
2022/05/03 05:30:46;;;;;;;5.00;4.07;;;9.10;58.60;;;;;;5054978;28;20052;-85
2022/05/03 05:33:12;;;;;;;5.97;4.45;;;9.20;58.60;;;;;;5069427;28;20068;-86
2022/05/03 05:35:40;;;;;;;4.97;4.30;;;9.20;58.70;;;;;;5074310;28;20052;-86
2022/05/03 05:38:05;;;;;;;7.72;5.60;;;9.30;58.70;;;;;;5070010;28;20062;-86
2022/05/03 05:40:31;;;;;;;6.68;4.72;;;9.30;58.70;;;;;;5054626;28;20395;-86
2022/05/03 05:42:59;;;;;;;6.35;4.90;;;9.40;58.80;;;;;;5058276;28;20036;-86
2022/05/03 05:45:25;;;;;;;6.43;4.72;;;9.40;58.80;;;;;;5074515;28;20048;-85
2022/05/03 05:47:50;;;;;;;6.75;5.45;;;9.40;58.80;;;;;;5053899;28;20052;-85
2022/05/03 05:50:16;;;;;;;6.65;4.88;;;9.50;58.90;;;;;;5069360;28;20403;-84
2022/05/03 05:55:25;;;;;;;6.72;5.40;;;9.60;59.00;;;;;;5054365;28;20124;-84
2022/05/03 05:57:51;;;;;;;7.82;5.70;;;9.70;59.00;;;;;;5037073;28;20473;-84
2022/05/03 06:00:18;;;;;;;6.63;5.30;;;9.80;59.00;;;;;;5054762;28;20525;-85
2022/05/03 06:02:43;;;;;;;8.02;5.90;;;9.80;59.20;;;;;;5056233;28;20060;-85
2022/05/03 06:05:09;;;;;;;7.75;5.90;;;9.90;59.30;;;;;;5057337;28;20045;-84
2022/05/03 06:07:35;;;;;;;9.95;7.15;;;9.90;59.30;;;;;;5069577;28;20048;-85
2022/05/03 06:10:01;;;;;;;6.28;5.47;;;10.00;59.80;;;;;;5068272;28;20080;-84
2022/05/03 06:12:26;;;;;;;6.93;5.88;;;10.00;59.80;;;;;;5073547;28;20052;-85
2022/05/03 06:14:52;;;;;;;7.50;6.10;;;10.10;59.60;;;;;;5062212;28;20033;-85
2022/05/03 06:17:18;;;;;;;9.38;7.20;;;10.10;59.70;;;;;;5065491;28;20451;-85
2022/05/03 06:19:44;;;;;;;7.85;6.28;;;10.10;59.70;;;;;;5062296;28;20050;-85
2022/05/03 06:22:10;;;;;;;7.45;5.72;;;10.20;59.60;;;;;;5073754;28;20411;-84
2022/05/03 06:24:38;;;;;;;8.00;6.25;;;10.20;59.60;;;;;;5068890;28;20075;-85
2022/05/03 06:27:04;;;;;;;7.82;6.53;;;10.30;59.60;;;;;;5055552;28;20080;-86
2022/05/03 06:29:32;;;;;;;9.63;7.68;;;10.30;59.70;;;;;;5061277;28;20047;-85
2022/05/03 06:31:59;;;;;;;9.65;8.63;;;10.30;59.80;;;;;;5060384;28;20040;-85
2022/05/03 06:34:25;;;;;;;11.15;7.25;;;10.40;60.00;;;;;;5066239;28;20040;-85
2022/05/03 06:36:51;;;;;;;9.10;7.53;;;10.50;60.20;;;;;;5054905;28;20041;-84
2022/05/03 06:39:17;;;;;;;8.38;7.05;;;10.50;60.00;;;;;;5041811;28;20045;-84
2022/05/03 06:41:43;;;;;;;9.52;7.45;;;10.50;60.00;;;;;;5061193;28;20510;-85
2022/05/03 06:44:08;;;;;;;9.00;6.57;;;10.60;59.90;;;;;;5055707;28;20175;-84
2022/05/03 06:46:34;;;;;;;11.05;7.85;;;10.60;59.80;;;;;;5059562;28;20033;-85
2022/05/03 06:49:00;;;;;;;10.88;7.25;;;10.70;59.90;;;;;;5072440;28;20056;-85
2022/05/03 06:51:26;;;;;;;9.30;7.57;;;10.70;60.10;;;;;;5053992;28;20037;-85
2022/05/03 06:53:52;;;;;;;9.27;7.47;;;10.80;60.20;;;;;;5053967;28;20033;-84
2022/05/03 06:56:18;;;;;;;13.32;8.18;;;10.80;60.00;;;;;;5036405;28;20480;-84
2022/05/03 06:58:44;;;;;;;9.85;6.70;;;10.90;60.00;;;;;;5054661;28;20041;-85
2022/05/03 07:01:14;;;;;;;11.85;8.70;;;10.90;60.00;;;;;;5072092;28;20095;-84
2022/05/03 07:03:42;;;;;;;11.07;8.38;;;11.00;60.00;;;;;;5053462;28;20053;-84
2022/05/03 07:06:08;;;;;;;9.18;6.75;;;11.00;60.20;;;;;;5055127;28;20470;-85
2022/05/03 07:08:35;;;;;;;11.27;8.48;;;11.00;60.20;;;;;;5054583;28;20040;-84
2022/05/03 07:11:00;;;;;;;13.85;9.95;;;11.00;60.20;;;;;;5068994;28;20056;-84
2022/05/03 07:13:27;;;;;;;12.68;8.77;;;11.10;60.70;;;;;;5055412;28;20079;-84
2022/05/03 07:15:56;;;;;;;13.27;9.02;;;11.20;61.10;;;;;;5069015;28;20176;-84
2022/05/03 07:23:52;;;;;;;;;;;11.30;61.50;;;;;;5063411;28;20044;-84
2022/05/03 07:26:21;;;;;;;22.45;13.90;;;11.30;61.30;;;;;;5036294;28;20290;-84
2022/05/03 07:28:48;;;;;;;22.77;13.95;;;11.30;61.50;;;;;;5053506;28;20048;-84
2022/05/03 07:31:15;;;;;;;18.23;13.43;;;11.40;61.80;;;;;;5063214;28;20123;-84
2022/05/03 07:33:41;;;;;;;24.88;14.20;;;11.40;61.80;;;;;;5049108;28;20060;-83
2022/05/03 07:36:07;;;;;;;42.03;22.40;;;11.40;62.20;;;;;;5058414;28;20047;-85
2022/05/03 07:38:34;;;;;;;33.88;19.77;;;11.50;62.90;;;;;;5071707;28;20045;-85
2022/05/03 07:41:00;;;;;;;29.63;17.42;;;11.50;63.20;;;;;;5061369;28;20116;-84
2022/05/03 07:43:26;;;;;;;42.28;21.60;;;11.60;63.40;;;;;;5053420;28;20037;-84
2022/05/03 07:45:51;;;;;;;44.67;24.33;;;11.60;63.20;;;;;;5040460;28;20389;-85
2022/05/03 07:48:17;;;;;;;36.85;23.48;;;11.70;63.80;;;;;;5056719;28;20419;-83
2022/05/03 07:50:46;;;;;;;45.08;27.63;;;11.60;63.90;;;;;;5070473;28;20075;-84
2022/05/03 07:53:12;;;;;;;36.10;24.05;;;11.70;64.80;;;;;;5068019;28;20045;-85
2022/05/03 07:55:37;;;;;;;27.83;19.58;;;11.70;65.70;;;;;;5063786;28;20036;-85
2022/05/03 07:58:03;;;;;;;30.45;21.25;;;11.80;65.50;;;;;;5076856;28;20051;-86
2022/05/03 08:00:29;;;;;;;26.52;18.63;;;11.80;66.50;;;;;;5075899;28;20402;-85
2022/05/03 08:02:54;;;;;;;22.90;18.35;;;11.70;66.40;;;;;;5055225;28;20059;-85
2022/05/03 08:05:20;;;;;;;21.77;16.00;;;11.70;66.60;;;;;;5065559;28;20048;-84
2022/05/03 08:07:47;;;;;;;23.33;16.48;;;11.70;66.80;;;;;;5034442;28;20060;-84
2022/05/03 08:10:12;;;;;;;21.77;15.90;;;11.70;67.20;;;;;;5053294;28;20065;-84
2022/05/03 08:12:38;;;;;;;20.25;14.65;;;11.70;67.70;;;;;;5035091;28;20451;-84
2022/05/03 08:15:04;;;;;;;24.38;14.40;;;11.60;67.90;;;;;;5063301;28;20395;-84
2022/05/03 08:17:31;;;;;;;18.45;13.38;;;11.60;68.10;;;;;;5052037;28;20424;-84
2022/05/03 08:19:57;;;;;;;17.92;13.68;;;11.50;68.10;;;;;;5057126;28;20052;-77
2022/05/03 08:22:24;;;;;;;17.15;11.30;;;11.50;68.60;;;;;;5070610;28;20036;-78
2022/05/03 08:24:51;;;;;;;13.93;10.45;;;11.50;68.70;;;;;;5040523;28;20044;-79
2022/05/03 08:27:17;;;;;;;12.88;8.85;;;11.50;68.60;;;;;;5047995;28;20102;-78
2022/05/03 08:29:43;;;;;;;11.48;7.50;;;11.50;68.60;;;;;;5047715;28;20041;-77
2022/05/03 08:32:09;;;;;;;9.43;5.18;;;11.40;69.10;;;;;;5045026;28;20128;-79
2022/05/03 08:34:35;;;;;;;8.57;5.13;;;11.40;68.80;;;;;;5037849;28;20128;-78
2022/05/03 08:42:30;;;;;;;9.00;5.15;;;11.40;69.20;;;;;;5060819;28;20499;-79
2022/05/03 08:44:56;;;;;;;13.10;5.38;;;11.30;69.20;;;;;;5038074;28;20451;-78
2022/05/03 08:47:25;;;;;;;10.75;5.90;;;11.30;69.40;;;;;;5070596;28;20064;-78
2022/05/03 08:49:57;;;;;;;10.05;5.65;;;11.40;69.90;;;;;;5057766;28;20365;-78
2022/05/03 08:52:24;;;;;;;9.10;5.30;;;11.40;70.00;;;;;;5055485;28;20048;-78
2022/05/03 08:54:50;;;;;;;10.95;4.78;;;11.40;69.80;;;;;;5057768;28;20048;-78
2022/05/03 08:57:18;;;;;;;11.50;5.25;;;11.40;69.60;;;;;;5064961;28;20049;-79
2022/05/03 08:59:48;;;;;;;10.15;4.97;;;11.40;69.60;;;;;;5073101;28;20079;-80
2022/05/03 09:02:13;;;;;;;11.75;4.85;;;11.50;69.40;;;;;;5074583;28;20040;-79
2022/05/03 09:04:39;;;;;;;8.68;5.18;;;11.60;69.40;;;;;;5074790;28;20032;-79
2022/05/03 09:07:22;;;;;;;12.38;5.57;;;11.60;69.30;;;;;;5073598;28;20048;-79
2022/05/03 09:09:49;;;;;;;10.48;5.60;;;11.60;69.00;;;;;;5073188;28;20056;-78
2022/05/03 09:12:26;;;;;;;9.60;4.85;;;11.60;68.80;;;;;;5039055;28;20135;-79
2022/05/03 09:14:54;;;;;;;11.48;5.13;;;11.60;68.70;;;;;;5066588;28;20033;-79
2022/05/03 09:17:35;;;;;;;7.18;4.32;;;11.70;68.60;;;;;;5064129;28;20041;-79
2022/05/03 09:23:46;;;;;;;12.80;5.32;;;11.70;68.30;;;;;;5094425;28;20083;-80
2022/05/03 09:25:36;;;;;;;11.20;5.50;;;11.70;67.90;;;;;;5050659;28;20495;-81
2022/05/03 09:28:06;;;;;;;11.43;5.10;;;11.80;67.70;;;;;;5046697;28;20489;-81
2022/05/03 09:30:32;;;;;;;11.63;5.22;;;11.80;67.50;;;;;;5071975;28;20887;-81
2022/05/03 09:32:57;;;;;;;12.15;5.15;;;11.80;67.10;;;;;;5052656;28;20143;-80
2022/05/03 09:35:36;;;;;;;15.13;6.15;;;11.80;66.90;;;;;;5054680;28;20049;-81
2022/05/03 09:38:04;;;;;;;16.25;6.28;;;11.80;66.70;;;;;;5052181;28;20400;-81
2022/05/03 09:40:51;;;;;;;14.40;5.75;;;11.80;66.60;;;;;;5043155;28;20048;-81
2022/05/03 09:43:16;;;;;;;13.93;6.10;;;11.80;66.40;;;;;;5037622;28;20052;-80
2022/05/03 09:45:42;;;;;;;19.70;6.72;;;11.70;66.10;;;;;;5051662;28;20039;-81
2022/05/03 09:48:08;;;;;;;16.52;6.40;;;11.70;66.00;;;;;;5051482;28;20040;-81
2022/05/03 09:50:45;;;;;;;12.57;6.00;;;11.70;66.10;;;;;;5043371;28;20403;-81
2022/05/03 09:53:22;;;;;;;15.90;6.03;;;11.80;65.90;;;;;;5069211;28;20044;-81
2022/05/03 09:55:49;;;;;;;16.42;6.85;;;11.60;65.80;;;;;;5052309;28;20388;-80
2022/05/03 09:58:17;;;;;;;15.93;6.38;;;11.60;65.80;;;;;;5033720;28;20045;-81
2022/05/03 10:00:46;;;;;;;16.60;6.95;;;11.70;65.90;;;;;;5052335;28;20045;-80
2022/05/03 10:03:11;;;;;;;13.52;6.80;;;11.60;65.80;;;;;;5050174;28;20084;-81
2022/05/03 10:05:40;;;;;;;15.13;5.90;;;11.70;65.60;;;;;;5051667;28;20084;-80
2022/05/03 10:08:10;;;;;;;17.73;6.05;;;11.70;65.50;;;;;;5067121;28;20392;-81
2022/05/03 10:10:37;;;;;;;17.25;5.85;;;11.80;65.50;;;;;;5069807;28;20067;-80
2022/05/03 10:13:02;;;;;;;13.18;5.43;;;11.80;65.20;;;;;;5056183;28;20091;-81
2022/05/03 10:21:15;;;;;;;17.02;6.50;;;11.90;64.70;;;;;;5051321;28;20060;-80
2022/05/03 10:23:41;;;;;;;16.98;5.43;;;11.90;64.80;;;;;;5066326;28;20052;-81
2022/05/03 10:26:09;;;;;;;16.38;6.15;;;11.90;64.60;;;;;;5052997;28;20426;-80
2022/05/03 10:29:01;;;;;;;12.07;4.95;;;12.00;64.50;;;;;;5042129;28;20114;-81
2022/05/03 10:31:27;;;;;;;13.50;4.63;;;12.00;64.30;;;;;;5070056;28;20057;-80
2022/05/03 10:33:52;;;;;;;19.58;6.03;;;12.00;64.30;;;;;;5038930;28;20064;-81
2022/05/03 10:36:30;;;;;;;20.42;6.55;;;12.00;64.10;;;;;;5065356;28;20054;-81
2022/05/03 10:39:05;;;;;;;17.05;6.15;;;12.00;64.40;;;;;;5068041;28;20380;-81
2022/05/03 10:41:31;;;;;;;17.88;5.05;;;12.10;63.80;;;;;;5051824;28;20082;-81
2022/05/03 10:43:57;;;;;;;14.32;5.57;;;12.10;63.70;;;;;;5038195;28;20453;-80
2022/05/03 10:46:23;;;;;;;13.27;5.18;;;12.20;63.70;;;;;;5053531;28;20037;-80
2022/05/03 10:49:15;;;;;;;17.38;6.07;;;12.20;63.30;;;;;;5049445;28;20146;-80
2022/05/03 10:51:42;;;;;;;12.25;5.05;;;12.30;62.90;;;;;;5018240;28;20048;-81
2022/05/03 10:54:08;;;;;;;17.08;5.95;;;12.30;62.70;;;;;;5071641;28;20552;-81
2022/05/03 10:56:34;;;;;;;14.63;5.22;;;12.20;62.50;;;;;;5067122;28;20124;-81
2022/05/03 10:59:12;;;;;;;14.70;5.63;;;12.30;62.40;;;;;;5061594;28;20033;-79
2022/05/03 11:02:06;;;;;;;15.80;5.50;;;12.30;62.10;;;;;;5035355;28;20044;-82
2022/05/03 11:04:33;;;;;;;12.88;4.72;;;12.40;61.70;;;;;;5048581;28;20045;-81
2022/05/03 11:06:58;;;;;;;16.08;4.65;;;12.40;61.80;;;;;;5054171;28;20380;-80
2022/05/03 11:09:29;;;;;;;11.98;4.47;;;12.40;61.70;;;;;;5048765;28;20102;-80
2022/05/03 11:11:57;;;;;;;14.57;4.60;;;12.40;61.40;;;;;;5055679;28;20056;-80
2022/05/03 11:14:24;;;;;;;14.38;4.20;;;12.40;61.30;;;;;;5073146;28;20055;-81
2022/05/03 11:17:04;;;;;;;15.55;5.03;;;12.50;61.10;;;;;;5073195;28;20052;-81
2022/05/03 11:19:32;;;;;;;21.48;5.40;;;12.50;61.10;;;;;;5070613;28;20568;-81
2022/05/03 11:21:59;;;;;;;11.60;4.18;;;12.50;61.30;;;;;;5077902;28;20086;-80
2022/05/03 11:24:30;;;;;;;13.00;3.88;;;12.50;61.10;;;;;;5066539;28;20083;-80
2022/05/03 11:27:02;;;;;;;10.57;3.53;;;12.50;60.80;;;;;;5038979;28;20061;-80
2022/05/03 11:29:32;;;;;;;16.92;4.40;;;12.60;60.80;;;;;;5041096;28;20041;-79
2022/05/03 11:31:59;;;;;;;9.95;3.40;;;12.60;60.40;;;;;;5057269;28;20052;-79
2022/05/03 11:34:26;;;;;;;11.77;4.00;;;12.70;60.10;;;;;;5047499;28;20059;-80
2022/05/03 11:36:52;;;;;;;10.02;3.58;;;12.80;60.10;;;;;;5076404;28;20048;-79
2022/05/03 11:39:19;;;;;;;10.20;3.70;;;12.90;59.50;;;;;;5068677;28;20086;-80
2022/05/03 11:41:46;;;;;;;13.60;4.00;;;12.90;59.20;;;;;;5039162;28;20060;-80
2022/05/03 11:44:12;;;;;;;13.88;3.83;;;13.00;59.30;;;;;;5058183;28;20040;-78
2022/05/03 11:46:39;;;;;;;11.82;3.45;;;13.00;58.80;;;;;;5056985;28;20471;-79
2022/05/03 11:49:06;;;;;;;6.85;2.97;;;13.00;58.70;;;;;;5061307;28;20075;-78
2022/05/03 11:57:17;;;;;;;10.15;3.15;;;13.30;57.80;;;;;;5056665;28;20085;-82
2022/05/03 11:59:44;;;;;;;10.20;3.35;;;13.50;57.20;;;;;;5063055;28;20112;-82
2022/05/03 12:02:29;;;;;;;6.97;2.80;;;13.50;56.40;;;;;;5074992;28;20049;-82
2022/05/03 12:05:04;;;;;;;9.88;3.08;;;13.60;56.20;;;;;;5072717;28;20051;-81
2022/05/03 12:07:37;;;;;;;8.45;2.92;;;13.70;55.70;;;;;;5058574;28;20040;-82
2022/05/03 12:10:40;;;;;;;8.55;2.50;;;13.70;56.10;;;;;;5073471;28;20131;-81
2022/05/03 12:13:06;;;;;;;7.53;2.92;;;13.80;56.30;;;;;;5056872;28;20058;-82
2022/05/03 12:15:33;;;;;;;9.02;3.08;;;13.90;56.30;;;;;;5058521;28;20029;-82
2022/05/03 12:18:03;;;;;;;7.07;3.30;;;14.00;56.20;;;;;;5056242;28;20037;-82
2022/05/03 12:20:55;;;;;;;12.32;3.53;;;14.10;55.30;;;;;;5066547;28;20467;-82
2022/05/03 12:23:25;;;;;;;9.27;2.95;;;14.10;54.20;;;;;;4993744;28;20046;-82
2022/05/03 12:25:53;;;;;;;6.97;2.55;;;14.10;54.20;;;;;;4967071;28;20067;-82
2022/05/03 12:28:20;;;;;;;7.38;2.45;;;14.30;54.40;;;;;;4984675;28;20055;-82
2022/05/03 12:30:55;;;;;;;7.90;3.35;;;14.20;54.40;;;;;;4993210;28;20129;-82
2022/05/03 12:33:24;;;;;;;11.68;3.10;;;14.30;53.60;;;;;;4977437;28;20054;-82
2022/05/03 12:35:50;;;;;;;8.30;2.72;;;14.30;53.70;;;;;;4989997;28;20486;-82
2022/05/03 12:38:17;;;;;;;7.70;3.30;;;14.40;54.00;;;;;;4991089;28;20069;-81
2022/05/03 12:40:56;;;;;;;7.65;2.60;;;14.40;54.00;;;;;;5004119;28;20050;-81
2022/05/03 12:43:23;;;;;;;7.82;2.80;;;14.50;53.40;;;;;;4994059;28;20049;-81
2022/05/03 12:45:56;;;;;;;7.70;2.92;;;14.50;53.50;;;;;;4969513;28;20042;-81
2022/05/03 12:48:22;;;;;;;6.75;2.97;;;14.50;53.40;;;;;;4967992;28;20093;-81
2022/05/03 12:50:48;;;;;;;9.45;2.78;;;14.50;53.40;;;;;;4966974;28;20505;-82
2022/05/03 12:53:15;;;;;;;8.68;2.72;;;14.50;53.00;;;;;;4977557;28;20109;-82
2022/05/03 12:55:41;;;;;;;10.75;3.53;;;14.60;53.20;;;;;;4975250;28;20070;-82
2022/05/03 12:58:22;;;;;;;8.23;2.78;;;14.60;53.10;;;;;;4972978;28;20493;-81
2022/05/03 13:00:57;;;;;;;6.82;2.65;;;14.50;53.00;;;;;;5038749;28;20127;-82
2022/05/03 13:03:23;;;;;;;6.97;2.42;;;14.70;53.40;;;;;;5075431;28;20377;-82
2022/05/03 13:05:50;;;;;;;5.88;2.58;;;14.70;53.30;;;;;;5054319;28;20048;-82
2022/05/03 13:08:17;;;;;;;10.32;2.67;;;14.80;53.00;;;;;;5056824;28;20072;-82
2022/05/03 13:10:43;;;;;;;7.70;2.78;;;14.90;52.20;;;;;;5071974;28;20123;-81
2022/05/03 13:13:08;;;;;;;7.85;2.58;;;15.00;52.50;;;;;;5075311;28;20079;-81
2022/05/03 13:15:34;;;;;;;5.75;2.20;;;15.00;51.70;;;;;;5072309;28;20040;-81
2022/05/03 13:18:00;;;;;;;8.77;2.50;;;14.90;50.80;;;;;;5074971;28;20067;-82
2022/05/03 13:20:29;;;;;;;8.30;2.40;;;14.90;51.00;;;;;;5070713;28;20040;-82
2022/05/03 13:22:55;;;;;;;7.70;2.33;;;15.00;51.30;;;;;;5055048;28;20059;-82
2022/05/03 13:25:21;;;;;;;5.50;1.83;;;15.00;52.00;;;;;;5038707;28;20376;-82
2022/05/03 13:27:48;;;;;;;6.65;2.88;;;15.10;52.50;;;;;;5072774;28;20048;-82
2022/05/03 13:30:15;;;;;;;5.50;1.80;;;15.20;52.50;;;;;;5056465;28;20045;-82
2022/05/03 13:32:41;;;;;;;6.05;2.22;;;15.30;52.60;;;;;;5055174;28;20044;-82
2022/05/03 13:35:07;;;;;;;7.20;2.40;;;15.40;52.30;;;;;;5055988;28;20083;-82
2022/05/03 13:40:29;;;;;;;;;;;15.50;50.30;;;;;;5055281;28;20049;-82
2022/05/03 13:43:00;;;;;;;6.82;2.72;;;15.40;50.00;;;;;;5054510;28;20023;-82